Isle of Bute, United Kingdom
Current Conditions -  °F | °C
As of 3:20 PM on Thursday 18 Dec 2014 (Local Time) from EGPF Reporting Station
Drizzle Drizzle  
Wind Chill:   Ceiling: 1000
Heat Index:   Visibility: 3mi
Dew Point:   Wind: 14mph
Humidity: 93%   Direction: 250°WSW
Pressure: 29.38"   Gusts: NA
Location:  55.84°N, 5.05°W
Report Text: EGPF 181520Z AUTO 25012KT 4800 DZ BKN010 08/07 Q0995
Loading
Personal Weather Stations






























Interactive Weather Map New forecast layout! Learn more

10-Day Weather Forecast

Advertisements
Track Severe Weather on mobile